Time;durP1;ratioP1;P1;durP2;ratioP2;P2;SDS_P1;SDS_P2;PMS_P1;PMS_P2;Temp;Humidity;BMP_temperature;BMP_pressure;BME280_temperature;BME280_humidity;BME280_pressure;Samples;Min_cycle;Max_cycle;Signal;HPM_P1;HPM_P2
2023/07/03 00:00:33;;;;;;;9.37;5.80;;;;;;;15.03;62.76;100321.53;4788902;29;20439;-69
2023/07/03 00:03:02;;;;;;;12.93;6.80;;;;;;;14.88;63.91;100314.97;4789492;29;20495;-70
2023/07/03 00:05:34;;;;;;;8.80;6.10;;;;;;;14.82;64.09;100307.78;4796864;29;20447;-72
2023/07/03 00:08:03;;;;;;;9.20;7.23;;;;;;;14.68;64.73;100309.97;4793902;29;20475;-70
2023/07/03 00:10:33;;;;;;;10.73;5.70;;;;;;;14.64;65.08;100303.34;4802635;29;20494;-70
2023/07/03 00:13:02;;;;;;;12.53;6.90;;;;;;;14.76;64.35;100304.94;4797750;29;20535;-70
2023/07/03 00:15:31;;;;;;;14.07;7.40;;;;;;;14.71;65.67;100306.78;4788623;29;20410;-69
2023/07/03 00:18:00;;;;;;;15.13;6.10;;;;;;;14.71;64.77;100304.06;4795688;29;20541;-68
2023/07/03 00:20:30;;;;;;;13.93;6.60;;;;;;;14.65;66.01;100307.75;4787944;29;20962;-70
2023/07/03 00:23:01;;;;;;;8.57;6.00;;;;;;;14.49;66.65;100303.06;4795785;29;20452;-70
2023/07/03 00:25:30;;;;;;;10.00;6.27;;;;;;;14.57;65.83;100308.94;4792812;29;20419;-70
2023/07/03 00:27:59;;;;;;;8.70;6.13;;;;;;;14.54;66.89;100297.72;4787045;29;20446;-71
2023/07/03 00:30:29;;;;;;;15.73;5.73;;;;;;;14.55;66.74;100304.81;4795102;29;20483;-69
2023/07/03 00:32:59;;;;;;;10.20;6.20;;;;;;;14.60;66.58;100304.91;4781520;29;20975;-69
2023/07/03 00:35:28;;;;;;;9.80;6.90;;;;;;;14.41;66.95;100301.56;4789765;29;20501;-70
2023/07/03 00:37:59;;;;;;;8.60;7.17;;;;;;;14.36;68.00;100298.72;5173677;24;20501;-67
2023/07/03 00:40:29;;;;;;;10.63;7.03;;;;;;;14.53;66.56;100301.50;4842489;29;20446;-67
2023/07/03 00:42:58;;;;;;;15.00;7.33;;;;;;;14.47;67.23;100294.31;4832764;29;20470;-64
2023/07/03 00:45:27;;;;;;;10.17;6.00;;;;;;;14.43;67.26;100293.13;4821856;29;20841;-68
2023/07/03 00:47:58;;;;;;;12.57;6.53;;;;;;;14.42;67.56;100291.50;4820781;29;20441;-65
2023/07/03 00:50:27;;;;;;;10.43;5.67;;;;;;;14.29;67.85;100287.94;4811686;29;20469;-67
2023/07/03 00:53:05;;;;;;;10.87;7.17;;;;;;;14.23;68.72;100288.88;4815609;29;20758;-66
2023/07/03 00:55:34;;;;;;;10.47;7.07;;;;;;;14.17;68.82;100283.59;4812165;29;20439;-67
2023/07/03 00:58:03;;;;;;;12.20;7.97;;;;;;;14.29;68.54;100282.50;4819755;29;20434;-68
2023/07/03 01:00:45;;;;;;;17.07;7.10;;;;;;;14.39;67.82;100279.19;4825231;29;20481;-67
2023/07/03 01:03:21;;;;;;;11.67;7.17;;;;;;;14.25;68.27;100277.78;4828792;29;20510;-66
2023/07/03 01:05:53;;;;;;;11.60;6.77;;;;;;;14.22;68.51;100281.00;4813547;29;20905;-64
2023/07/03 01:08:25;;;;;;;13.63;7.13;;;;;;;14.16;68.95;100276.50;4829485;29;20478;-66
2023/07/03 01:10:56;;;;;;;12.20;7.23;;;;;;;14.16;68.74;100281.94;4822958;29;20450;-68
2023/07/03 01:13:29;;;;;;;11.77;6.43;;;;;;;14.56;67.26;100288.25;4814512;29;20491;-66
2023/07/03 01:15:59;;;;;;;11.80;6.17;;;;;;;14.52;67.70;100267.19;4819349;29;20431;-67
2023/07/03 01:18:29;;;;;;;11.73;6.60;;;;;;;14.88;66.50;100269.50;4828340;29;20505;-65
2023/07/03 01:21:05;;;;;;;15.63;7.30;;;;;;;14.98;66.42;100279.75;4827500;29;21026;-66
2023/07/03 01:23:43;;;;;;;14.43;7.60;;;;;;;15.03;66.51;100272.50;4804591;29;20431;-65
2023/07/03 01:26:16;;;;;;;11.80;7.23;;;;;;;15.19;65.40;100271.69;4821816;29;20424;-65
2023/07/03 01:28:51;;;;;;;13.67;6.50;;;;;;;15.22;65.31;100276.63;4814621;29;20428;-66
2023/07/03 01:31:22;;;;;;;11.27;7.60;;;;;;;15.32;65.50;100269.69;4815667;29;20481;-66
2023/07/03 01:33:54;;;;;;;15.60;6.90;;;;;;;15.35;65.14;100259.09;4822592;29;20504;-68
2023/07/03 01:36:24;;;;;;;10.50;7.40;;;;;;;15.39;65.31;100264.91;4820465;29;20457;-65
2023/07/03 01:38:55;;;;;;;9.87;6.43;;;;;;;15.50;64.58;100258.50;4818415;29;20429;-68
2023/07/03 01:41:26;;;;;;;15.93;7.50;;;;;;;15.57;64.37;100256.50;4808700;29;21000;-64
2023/07/03 01:43:55;;;;;;;10.50;6.80;;;;;;;15.67;64.52;100259.38;4813496;29;20893;-65
2023/07/03 01:46:25;;;;;;;10.37;7.40;;;;;;;15.74;64.25;100257.28;4825669;29;20837;-67
2023/07/03 01:48:55;;;;;;;10.77;7.17;;;;;;;15.89;63.97;100254.75;4812095;29;20420;-67
2023/07/03 01:51:34;;;;;;;12.40;6.60;;;;;;;16.00;62.77;100256.56;4813785;29;20481;-65
2023/07/03 01:54:10;;;;;;;9.97;6.40;;;;;;;15.97;62.98;100257.06;4815140;29;20436;-65
2023/07/03 01:56:49;;;;;;;11.77;7.70;;;;;;;15.96;62.59;100249.94;4814609;29;20470;-67
2023/07/03 01:59:24;;;;;;;12.80;6.83;;;;;;;15.96;62.59;100255.41;4817015;29;20409;-68
2023/07/03 02:02:06;;;;;;;9.57;6.07;;;;;;;16.05;62.30;100247.59;4808232;29;20412;-66
2023/07/03 02:04:39;;;;;;;12.33;6.63;;;;;;;16.09;62.17;100238.66;4827397;29;20435;-65
2023/07/03 02:07:11;;;;;;;9.60;7.00;;;;;;;16.06;62.26;100244.63;4816396;29;20437;-66
2023/07/03 02:09:41;;;;;;;11.27;6.63;;;;;;;16.17;61.72;100242.03;4807666;29;20816;-66
2023/07/03 02:12:12;;;;;;;10.30;6.20;;;;;;;15.99;62.71;100241.25;4822937;29;20843;-67
2023/07/03 02:14:43;;;;;;;12.73;6.20;;;;;;;16.00;62.94;100247.53;4825071;29;20465;-68
2023/07/03 02:17:13;;;;;;;14.87;7.97;;;;;;;16.07;62.86;100235.34;4813473;29;20449;-68
2023/07/03 02:19:42;;;;;;;10.03;7.30;;;;;;;16.03;62.96;100245.13;4830126;29;20456;-66
2023/07/03 02:22:11;;;;;;;13.50;8.30;;;;;;;16.19;62.53;100242.59;4833036;29;20523;-68
2023/07/03 02:24:43;;;;;;;10.27;7.00;;;;;;;16.07;62.95;100243.53;4815600;29;20409;-67
2023/07/03 02:27:13;;;;;;;8.27;6.60;;;;;;;16.14;62.70;100240.63;4820263;29;20457;-66
2023/07/03 02:29:42;;;;;;;14.67;7.70;;;;;;;16.07;62.77;100246.25;4812321;29;20431;-66
2023/07/03 02:32:12;;;;;;;10.00;6.63;;;;;;;16.12;62.76;100245.50;4819647;29;20481;-66
2023/07/03 02:34:42;;;;;;;13.10;7.30;;;;;;;16.17;62.61;100244.75;4814032;29;20464;-66
2023/07/03 02:37:13;;;;;;;11.83;7.67;;;;;;;16.20;62.82;100250.53;4822405;29;20441;-66
2023/07/03 02:39:43;;;;;;;8.60;6.63;;;;;;;16.28;62.91;100252.78;4819353;29;20966;-67
2023/07/03 02:42:14;;;;;;;11.50;6.77;;;;;;;16.23;62.61;100246.44;4810360;29;20459;-66
2023/07/03 02:44:43;;;;;;;10.93;7.20;;;;;;;16.44;61.45;100248.34;4828226;29;20436;-66
2023/07/03 02:47:12;;;;;;;9.90;6.83;;;;;;;16.31;61.56;100252.31;4823190;29;20473;-66
2023/07/03 02:49:42;;;;;;;12.43;7.40;;;;;;;16.22;62.66;100242.06;4812341;29;20508;-65
2023/07/03 02:52:11;;;;;;;8.67;6.40;;;;;;;16.45;61.95;100252.72;4821647;29;20506;-65
2023/07/03 02:54:40;;;;;;;11.43;7.07;;;;;;;16.36;61.97;100251.53;4810660;29;20451;-65
2023/07/03 02:57:11;;;;;;;19.97;7.80;;;;;;;16.32;61.64;100239.44;4817472;29;20903;-64
2023/07/03 02:59:41;;;;;;;12.23;7.77;;;;;;;16.25;61.93;100236.09;4811073;29;20418;-65
2023/07/03 03:02:11;;;;;;;13.30;7.90;;;;;;;16.25;62.31;100230.66;4828513;29;21007;-66
2023/07/03 03:04:40;;;;;;;9.80;7.23;;;;;;;16.32;62.25;100228.53;4826191;29;20519;-65
2023/07/03 03:07:10;;;;;;;12.70;7.47;;;;;;;16.17;62.92;100233.84;4812093;29;20469;-66
2023/07/03 03:09:40;;;;;;;10.33;6.60;;;;;;;16.24;63.13;100237.19;4820072;29;20814;-67
2023/07/03 03:12:10;;;;;;;10.97;7.87;;;;;;;16.38;62.18;100236.53;4808548;29;20507;-64
2023/07/03 03:14:41;;;;;;;14.67;7.30;;;;;;;16.42;61.65;100243.13;4821353;29;20803;-67
2023/07/03 03:17:10;;;;;;;14.27;7.80;;;;;;;16.22;62.00;100239.31;4814267;29;20501;-66
2023/07/03 03:19:39;;;;;;;11.67;6.80;;;;;;;16.21;62.56;100235.81;4810496;29;20447;-71
2023/07/03 03:22:08;;;;;;;8.47;6.93;;;;;;;16.17;62.82;100239.28;4816842;29;20419;-68
2023/07/03 03:24:37;;;;;;;9.13;7.30;;;;;;;16.26;62.38;100235.88;4818172;29;21005;-68
2023/07/03 03:27:07;;;;;;;12.50;7.20;;;;;;;16.27;62.98;100233.94;4811060;29;20529;-67
2023/07/03 03:29:38;;;;;;;12.53;7.53;;;;;;;16.23;62.68;100227.34;4819486;29;20992;-66
2023/07/03 03:32:10;;;;;;;13.70;7.70;;;;;;;16.23;62.22;100232.78;4827399;29;20480;-66
2023/07/03 03:34:39;;;;;;;12.40;7.73;;;;;;;16.28;62.94;100230.13;4828933;29;20432;-68
2023/07/03 03:37:08;;;;;;;14.43;8.60;;;;;;;16.30;62.67;100236.16;4814205;29;20477;-67
2023/07/03 03:39:38;;;;;;;8.80;7.20;;;;;;;16.44;62.11;100235.53;4825505;29;20458;-66
2023/07/03 03:42:09;;;;;;;12.30;7.63;;;;;;;16.36;62.81;100227.75;4831305;29;20451;-67
2023/07/03 03:44:39;;;;;;;9.23;7.30;;;;;;;16.43;62.55;100233.03;4813561;29;20459;-66
2023/07/03 03:47:10;;;;;;;14.40;7.77;;;;;;;16.54;61.56;100234.81;4816982;29;20949;-67
2023/07/03 03:49:40;;;;;;;11.17;7.53;;;;;;;16.55;61.28;100236.47;4826908;29;20447;-66
2023/07/03 03:52:09;;;;;;;12.00;7.10;;;;;;;16.48;61.85;100235.81;4817650;29;20706;-67
2023/07/03 03:54:38;;;;;;;13.50;7.97;;;;;;;16.59;61.01;100229.41;4815755;29;20425;-68
2023/07/03 03:57:08;;;;;;;10.67;7.40;;;;;;;16.74;60.20;100232.31;4809242;29;20437;-67
2023/07/03 03:59:37;;;;;;;11.53;7.00;;;;;;;16.80;60.72;100233.16;4810201;29;20545;-67
2023/07/03 04:02:07;;;;;;;10.40;8.00;;;;;;;16.62;60.63;100230.81;4824032;29;20429;-66
2023/07/03 04:04:38;;;;;;;10.47;7.67;;;;;;;16.68;61.28;100221.59;4831525;29;20436;-68
2023/07/03 04:07:07;;;;;;;12.30;7.30;;;;;;;16.85;60.37;100228.56;4816191;29;20464;-67
2023/07/03 04:09:36;;;;;;;13.67;8.30;;;;;;;16.89;60.69;100226.97;4815914;29;20416;-66
2023/07/03 04:12:07;;;;;;;10.30;7.13;;;;;;;17.01;60.16;100229.53;4817296;29;20465;-68
2023/07/03 04:14:37;;;;;;;13.43;7.30;;;;;;;17.11;59.88;100228.78;4815116;29;20450;-66
2023/07/03 04:17:08;;;;;;;14.60;8.53;;;;;;;17.19;59.54;100220.94;4829208;29;20448;-67
2023/07/03 04:19:39;;;;;;;11.70;7.67;;;;;;;17.18;59.95;100219.31;4810725;29;20529;-68
2023/07/03 04:22:08;;;;;;;15.07;7.47;;;;;;;17.23;58.72;100221.25;4816282;29;20437;-67
2023/07/03 04:24:37;;;;;;;13.10;7.30;;;;;;;17.42;58.76;100225.22;4813803;29;20438;-66
2023/07/03 04:27:08;;;;;;;11.60;7.97;;;;;;;17.50;58.88;100216.50;4814947;29;20432;-66
2023/07/03 04:29:37;;;;;;;11.80;8.07;;;;;;;17.45;58.72;100211.00;4811842;29;20437;-68
2023/07/03 04:32:06;;;;;;;9.33;7.50;;;;;;;17.55;58.40;100218.44;4817674;29;20469;-66
2023/07/03 04:34:35;;;;;;;8.17;6.37;;;;;;;17.73;58.62;100224.34;4812879;29;20513;-64
2023/07/03 04:37:08;;;;;;;14.00;7.97;;;;;;;17.90;58.06;100220.59;4816510;29;20444;-66
2023/07/03 04:39:37;;;;;;;21.33;7.80;;;;;;;17.89;57.22;100227.16;4820247;29;20416;-67
2023/07/03 04:42:07;;;;;;;14.30;7.50;;;;;;;18.00;56.81;100220.66;4822112;29;20420;-65
2023/07/03 04:44:36;;;;;;;11.80;7.90;;;;;;;18.11;56.39;100222.31;4817200;29;20419;-65
2023/07/03 04:47:06;;;;;;;12.97;8.20;;;;;;;18.43;56.04;100224.91;4816303;29;20448;-66
2023/07/03 04:49:35;;;;;;;10.67;7.13;;;;;;;18.67;55.09;100215.13;4813832;29;20438;-67
2023/07/03 04:52:07;;;;;;;11.10;7.57;;;;;;;18.99;54.28;100217.59;4816161;29;20420;-66
2023/07/03 04:54:36;;;;;;;14.23;7.33;;;;;;;18.83;53.69;100219.50;4816089;29;20436;-66
2023/07/03 04:57:05;;;;;;;13.73;9.53;;;;;;;18.83;54.58;100214.03;4816418;29;20448;-66
2023/07/03 04:59:35;;;;;;;9.93;7.37;;;;;;;18.85;55.29;100211.03;4821522;29;20420;-67
2023/07/03 05:02:05;;;;;;;11.90;8.03;;;;;;;19.09;54.25;100217.59;4814241;29;20986;-66
2023/07/03 05:04:34;;;;;;;10.23;8.90;;;;;;;19.42;53.41;100227.19;4808175;29;20450;-68
2023/07/03 05:07:05;;;;;;;13.13;8.93;;;;;;;19.49;52.41;100217.63;4811148;29;20523;-66
2023/07/03 05:09:34;;;;;;;20.43;9.27;;;;;;;19.61;51.46;100219.22;4806664;29;20840;-67
2023/07/03 05:12:04;;;;;;;11.70;8.20;;;;;;;19.41;51.92;100220.88;4809142;29;20463;-67
2023/07/03 05:14:35;;;;;;;12.07;7.60;;;;;;;20.09;50.09;100212.22;4815670;29;20447;-68
2023/07/03 05:17:04;;;;;;;20.03;8.37;;;;;;;20.59;50.01;100216.66;4816290;29;20452;-66
2023/07/03 05:19:33;;;;;;;11.57;8.10;;;;;;;20.92;49.38;100213.09;4813292;29;20417;-68
2023/07/03 05:22:02;;;;;;;8.97;7.97;;;;;;;21.40;47.63;100218.78;4816641;29;20433;-66
2023/07/03 05:24:34;;;;;;;16.80;10.20;;;;;;;22.29;45.28;100218.06;4819026;29;20790;-69
2023/07/03 05:27:03;;;;;;;14.63;10.60;;;;;;;22.33;44.97;100210.00;4812433;29;20458;-65
2023/07/03 05:29:33;;;;;;;18.87;8.80;;;;;;;22.48;45.10;100218.09;4820046;29;20553;-66
2023/07/03 05:32:03;;;;;;;14.30;8.23;;;;;;;22.09;45.74;100219.16;4811919;29;20503;-65
2023/07/03 05:34:33;;;;;;;14.90;8.63;;;;;;;22.43;43.80;100220.91;4807091;29;20812;-66
2023/07/03 05:37:03;;;;;;;13.10;8.50;;;;;;;22.45;44.03;100226.97;4809327;29;20562;-66
2023/07/03 05:39:34;;;;;;;20.97;8.70;;;;;;;21.84;45.38;100224.91;4807555;29;20922;-66
2023/07/03 05:42:03;;;;;;;14.47;9.43;;;;;;;21.18;46.57;100220.09;4815154;29;20441;-67
2023/07/03 05:44:32;;;;;;;16.03;10.20;;;;;;;20.76;48.14;100219.84;4809042;29;20414;-66
2023/07/03 05:47:01;;;;;;;17.33;10.37;;;;;;;20.57;49.21;100224.38;4811427;29;20545;-66
2023/07/03 05:49:34;;;;;;;12.10;8.63;;;;;;;20.53;49.00;100226.00;4815441;29;20405;-67
2023/07/03 05:52:03;;;;;;;19.87;10.10;;;;;;;20.27;49.53;100223.41;4814645;29;20962;-67
2023/07/03 05:54:34;;;;;;;12.53;9.13;;;;;;;19.96;49.31;100216.38;4809317;29;20507;-68
2023/07/03 05:57:06;;;;;;;13.50;8.73;;;;;;;19.57;50.96;100229.09;4813491;29;20467;-65
2023/07/03 05:59:36;;;;;;;15.23;8.73;;;;;;;19.31;51.78;100228.31;4808300;29;20536;-68
2023/07/03 06:02:08;;;;;;;12.40;10.23;;;;;;;19.23;52.07;100229.66;4812415;29;20802;-67
2023/07/03 06:04:38;;;;;;;12.50;8.67;;;;;;;19.26;52.20;100234.63;4808680;29;20420;-68
2023/07/03 06:07:08;;;;;;;14.67;9.07;;;;;;;19.45;51.77;100232.16;4810346;29;20862;-66
2023/07/03 06:09:39;;;;;;;14.80;11.33;;;;;;;19.52;51.79;100241.75;4807881;29;20474;-66
2023/07/03 06:12:09;;;;;;;13.73;8.60;;;;;;;19.43;51.44;100237.88;4814420;29;20449;-66
2023/07/03 06:14:38;;;;;;;14.33;9.17;;;;;;;19.59;51.47;100235.97;4809733;29;20475;-66
2023/07/03 06:17:07;;;;;;;11.50;8.33;;;;;;;19.62;50.88;100242.81;4813398;29;20502;-65
2023/07/03 06:19:36;;;;;;;15.53;8.40;;;;;;;19.70;51.27;100242.28;4818410;29;20475;-68
2023/07/03 06:22:06;;;;;;;14.40;9.10;;;;;;;19.71;51.37;100246.66;4811048;29;20427;-68
2023/07/03 06:24:35;;;;;;;11.57;8.07;;;;;;;19.85;50.57;100244.97;4814147;29;20782;-67
2023/07/03 06:27:06;;;;;;;15.23;7.83;;;;;;;20.04;50.53;100248.78;4807356;29;21099;-68
2023/07/03 06:29:35;;;;;;;12.10;8.40;;;;;;;19.88;50.78;100242.50;4808618;29;20446;-66
2023/07/03 06:32:05;;;;;;;13.33;9.00;;;;;;;20.28;50.09;100252.50;4814939;29;20474;-66
2023/07/03 06:34:35;;;;;;;12.67;7.63;;;;;;;20.49;49.31;100249.69;4819504;29;20605;-66
2023/07/03 06:37:06;;;;;;;15.50;7.13;;;;;;;20.88;49.49;100253.28;4819602;29;20535;-65
2023/07/03 06:39:38;;;;;;;13.97;8.27;;;;;;;21.09;47.82;100251.22;4810377;29;20477;-66
2023/07/03 06:42:10;;;;;;;13.30;8.67;;;;;;;20.93;48.30;100257.94;4821110;29;20416;-65
2023/07/03 06:44:44;;;;;;;13.03;7.40;;;;;;;21.17;48.79;100254.19;4826366;29;20499;-66
2023/07/03 06:47:13;;;;;;;13.37;7.80;;;;;;;21.16;48.76;100262.72;4818706;29;21019;-67
2023/07/03 06:49:42;;;;;;;13.97;6.83;;;;;;;21.00;48.84;100255.69;4821582;29;20438;-67
2023/07/03 06:52:11;;;;;;;13.20;8.00;;;;;;;20.68;50.14;100265.25;4814809;29;20897;-67
2023/07/03 06:54:40;;;;;;;14.40;7.80;;;;;;;20.37;50.73;100263.78;4813881;29;20525;-65
2023/07/03 06:57:10;;;;;;;10.40;7.70;;;;;;;20.13;51.43;100252.56;4808627;29;20477;-68
2023/07/03 06:59:40;;;;;;;15.93;8.00;;;;;;;20.24;51.90;100264.31;4813275;29;20413;-68
2023/07/03 07:02:09;;;;;;;14.97;7.03;;;;;;;19.81;51.70;100261.19;4813973;29;20517;-67
2023/07/03 07:04:38;;;;;;;13.97;8.87;;;;;;;19.87;51.92;100259.25;4811609;29;20867;-67
2023/07/03 07:07:07;;;;;;;10.90;8.33;;;;;;;19.95;52.05;100264.16;4811203;29;20469;-68
2023/07/03 07:09:36;;;;;;;14.93;7.40;;;;;;;20.03;52.74;100263.59;4809528;29;20439;-66
2023/07/03 07:12:06;;;;;;;15.07;9.37;;;;;;;20.09;51.42;100265.22;4818825;29;20795;-66
2023/07/03 07:14:37;;;;;;;12.90;7.43;;;;;;;20.14;50.44;100251.47;4817016;29;20445;-67
2023/07/03 07:17:06;;;;;;;16.60;7.50;;;;;;;20.50;50.67;100254.91;4806539;29;21021;-67
2023/07/03 07:19:35;;;;;;;12.50;8.23;;;;;;;21.02;49.38;100261.72;4807463;29;20449;-68
2023/07/03 07:22:05;;;;;;;14.70;8.13;;;;;;;21.02;49.06;100265.28;4807745;29;20420;-66
2023/07/03 07:24:34;;;;;;;12.13;6.83;;;;;;;20.69;48.81;100261.41;4811396;29;20477;-68
2023/07/03 07:27:05;;;;;;;13.10;7.37;;;;;;;20.43;49.51;100279.09;4810926;29;20743;-66
2023/07/03 07:29:36;;;;;;;9.40;6.67;;;;;;;20.34;50.33;100273.38;4805779;29;20423;-67
2023/07/03 07:32:06;;;;;;;12.77;7.13;;;;;;;20.57;49.26;100268.34;4816195;29;20421;-67
2023/07/03 07:34:35;;;;;;;13.23;7.33;;;;;;;20.52;49.05;100268.38;4817820;29;20720;-67
2023/07/03 07:37:04;;;;;;;8.50;6.70;;;;;;;20.27;49.99;100267.34;4812703;29;20454;-66
2023/07/03 07:39:33;;;;;;;15.17;7.37;;;;;;;20.61;50.23;100274.91;4812190;29;20872;-68
2023/07/03 07:42:03;;;;;;;13.90;7.03;;;;;;;20.71;49.52;100272.13;4813920;29;20442;-68
2023/07/03 07:44:33;;;;;;;12.87;8.17;;;;;;;20.77;50.97;100277.28;4809384;29;20442;-66
2023/07/03 07:47:04;;;;;;;12.53;7.40;;;;;;;20.63;50.18;100269.94;4808746;29;20437;-66
2023/07/03 07:49:33;;;;;;;11.90;7.70;;;;;;;21.10;49.45;100280.38;4812739;29;20808;-68
2023/07/03 07:52:02;;;;;;;15.63;7.90;;;;;;;21.10;49.68;100281.22;4805641;29;20809;-67
2023/07/03 07:54:31;;;;;;;12.40;8.00;;;;;;;21.07;49.31;100276.25;4808542;29;20534;-67
2023/07/03 07:57:00;;;;;;;11.03;6.50;;;;;;;21.23;49.67;100279.75;4807900;29;20437;-66
2023/07/03 07:59:29;;;;;;;11.83;7.73;;;;;;;21.69;48.46;100266.38;4825009;29;20425;-65
2023/07/03 08:01:59;;;;;;;13.90;8.40;;;;;;;22.00;47.58;100262.25;4807160;29;20504;-68
2023/07/03 08:04:29;;;;;;;12.13;7.50;;;;;;;22.12;47.17;100264.59;4810040;29;20439;-67
2023/07/03 08:07:01;;;;;;;14.13;8.60;;;;;;;22.57;45.99;100265.94;4808957;29;20468;-66
2023/07/03 08:09:30;;;;;;;15.40;7.87;;;;;;;22.56;46.96;100264.28;4805996;29;20453;-66
2023/07/03 08:12:02;;;;;;;14.57;8.20;;;;;;;21.72;46.74;100276.00;4811212;29;21020;-68
2023/07/03 08:14:31;;;;;;;12.90;7.50;;;;;;;21.48;47.22;100271.28;4808991;29;20471;-68
2023/07/03 08:17:01;;;;;;;12.53;7.93;;;;;;;21.71;48.07;100268.84;4808569;29;20466;-68
2023/07/03 08:19:32;;;;;;;12.77;7.13;;;;;;;21.26;46.82;100259.91;4810087;29;20425;-68
2023/07/03 08:22:02;;;;;;;13.33;6.87;;;;;;;21.66;47.15;100259.53;4809974;29;20410;-68
2023/07/03 08:24:31;;;;;;;9.60;6.57;;;;;;;21.93;46.96;100261.75;4808544;29;20416;-65
2023/07/03 08:27:00;;;;;;;10.33;6.50;;;;;;;22.00;46.84;100253.97;4814969;29;20461;-65
2023/07/03 08:29:29;;;;;;;14.47;7.87;;;;;;;22.47;45.43;100266.88;4810936;29;20532;-67
2023/07/03 08:31:58;;;;;;;12.73;8.27;;;;;;;22.17;46.15;100256.28;4818375;29;20405;-67
2023/07/03 08:34:27;;;;;;;12.40;7.87;;;;;;;22.16;46.92;100256.56;4808453;29;20527;-67
2023/07/03 08:36:57;;;;;;;9.13;6.57;;;;;;;22.17;46.98;100266.47;4816315;29;20467;-68
2023/07/03 08:39:29;;;;;;;9.70;6.30;;;;;;;21.70;45.61;100262.53;4809724;29;20463;-66
2023/07/03 08:42:05;;;;;;;12.67;6.43;;;;;;;21.38;45.50;100267.78;4813460;29;20473;-66
2023/07/03 08:44:34;;;;;;;16.23;8.07;;;;;;;21.31;45.72;100267.28;4803834;29;20413;-68
2023/07/03 08:47:07;;;;;;;14.90;7.77;;;;;;;21.32;45.83;100257.94;4820706;29;20884;-65
2023/07/03 08:49:43;;;;;;;12.20;6.47;;;;;;;21.37;46.13;100264.22;4811046;29;20467;-66
2023/07/03 08:52:21;;;;;;;11.20;6.77;;;;;;;21.48;46.26;100264.97;4817147;29;20434;-66
2023/07/03 08:54:52;;;;;;;9.70;5.90;;;;;;;21.76;45.34;100266.06;4813285;29;20492;-65
2023/07/03 08:57:22;;;;;;;14.67;6.17;;;;;;;21.80;44.15;100272.63;4813346;29;20515;-67
2023/07/03 08:59:53;;;;;;;13.63;6.27;;;;;;;21.47;44.09;100271.56;4814742;29;20438;-65
2023/07/03 09:02:33;;;;;;;8.83;6.33;;;;;;;21.82;43.83;100276.75;4810391;29;20854;-67
2023/07/03 09:05:18;;;;;;;12.23;7.40;;;;;;;21.98;43.55;100269.97;4809473;29;20441;-68
2023/07/03 09:07:53;;;;;;;12.43;6.80;;;;;;;22.16;42.80;100282.19;4809349;29;20445;-66
2023/07/03 09:10:27;;;;;;;10.87;5.90;;;;;;;22.28;41.75;100273.47;4811500;29;20431;-66
2023/07/03 09:13:05;;;;;;;14.00;6.17;;;;;;;22.31;42.38;100270.16;4816907;29;20864;-67
2023/07/03 09:15:40;;;;;;;13.33;7.10;;;;;;;22.59;41.61;100283.00;4814739;29;20470;-66
2023/07/03 09:18:13;;;;;;;6.77;4.90;;;;;;;23.01;41.22;100281.31;4810163;29;20468;-66
2023/07/03 09:20:44;;;;;;;11.17;5.83;;;;;;;23.33;39.20;100278.63;4814895;29;20821;-66
2023/07/03 09:23:20;;;;;;;12.17;6.70;;;;;;;23.21;37.21;100284.59;4812505;29;20411;-66
2023/07/03 09:25:57;;;;;;;10.43;5.37;;;;;;;22.92;38.09;100289.47;4810849;29;20437;-69
2023/07/03 09:28:37;;;;;;;10.83;6.30;;;;;;;22.54;37.00;100288.59;4809276;29;20532;-67
2023/07/03 09:31:06;;;;;;;9.20;5.60;;;;;;;22.40;37.61;100284.91;4810410;29;20470;-67
2023/07/03 09:33:35;;;;;;;11.60;9.33;;;;;;;22.65;36.70;100284.59;4809004;29;20414;-67
2023/07/03 09:36:20;;;;;;;18.10;6.50;;;;;;;22.62;37.14;100290.69;4808881;29;20547;-65
2023/07/03 09:38:51;;;;;;;9.90;5.13;;;;;;;22.39;38.37;100297.88;4810434;29;20793;-67
2023/07/03 09:41:29;;;;;;;9.13;5.50;;;;;;;23.18;37.56;100290.72;4807725;29;20965;-67
2023/07/03 09:43:58;;;;;;;9.03;5.83;;;;;;;23.23;35.97;100281.53;4812838;29;20525;-69
2023/07/03 09:46:30;;;;;;;9.10;5.60;;;;;;;22.98;36.30;100293.78;4813706;29;20435;-68
2023/07/03 09:49:03;;;;;;;10.87;5.50;;;;;;;22.54;37.03;100289.41;4817624;29;20438;-67
2023/07/03 09:51:34;;;;;;;10.50;6.83;;;;;;;22.47;37.31;100305.47;4810870;29;20451;-66
2023/07/03 09:54:08;;;;;;;10.50;4.83;;;;;;;22.36;38.07;100305.91;4817080;29;20421;-68
2023/07/03 09:56:39;;;;;;;10.57;5.20;;;;;;;22.62;37.94;100303.63;4808122;29;20547;-68
2023/07/03 09:59:09;;;;;;;11.27;5.70;;;;;;;22.92;37.45;100314.28;4809691;29;20409;-68
2023/07/03 10:01:40;;;;;;;9.50;5.90;;;;;;;23.40;37.28;100309.41;4809642;29;20446;-67
2023/07/03 10:04:14;;;;;;;9.57;5.53;;;;;;;23.36;37.49;100311.13;4823872;29;20448;-68
2023/07/03 10:06:58;;;;;;;8.30;5.80;;;;;;;23.16;37.59;100314.22;4813760;29;20478;-64
2023/07/03 10:09:33;;;;;;;8.60;6.00;;;;;;;22.58;38.45;100316.38;4809194;29;20732;-67
2023/07/03 10:12:11;;;;;;;12.10;5.00;;;;;;;22.52;37.74;100313.69;4807870;29;20486;-67
2023/07/03 10:14:47;;;;;;;10.30;5.60;;;;;;;23.51;37.48;100316.44;4814437;29;20447;-66
2023/07/03 10:17:18;;;;;;;7.77;5.30;;;;;;;24.23;36.42;100316.81;4810734;29;20444;-66
2023/07/03 10:19:57;;;;;;;8.23;4.43;;;;;;;24.10;34.80;100325.88;4808455;29;20925;-67
2023/07/03 10:22:28;;;;;;;13.90;5.23;;;;;;;23.38;35.11;100326.25;4813526;29;20439;-67
2023/07/03 10:25:05;;;;;;;13.67;5.47;;;;;;;23.35;35.70;100320.53;4812200;29;20474;-67
2023/07/03 10:27:37;;;;;;;6.03;4.13;;;;;;;23.29;35.96;100322.56;4809720;29;20469;-66
2023/07/03 10:30:15;;;;;;;10.80;5.93;;;;;;;23.60;36.07;100322.09;4813156;29;20421;-68
2023/07/03 10:32:50;;;;;;;12.80;5.63;;;;;;;23.21;35.70;100319.66;4816097;29;20497;-68
2023/07/03 10:35:27;;;;;;;8.13;4.77;;;;;;;23.48;35.89;100314.25;4807914;29;20474;-66
2023/07/03 10:38:05;;;;;;;15.23;5.43;;;;;;;23.52;35.58;100320.84;4815964;29;21015;-66
2023/07/03 10:40:43;;;;;;;9.20;5.10;;;;;;;23.34;35.76;100319.72;4807593;29;20786;-66
2023/07/03 10:43:13;;;;;;;8.27;4.87;;;;;;;23.46;35.92;100327.56;4809387;29;20921;-67
2023/07/03 10:45:43;;;;;;;11.23;5.27;;;;;;;22.88;36.27;100336.16;4806121;29;20445;-68
2023/07/03 10:48:16;;;;;;;13.73;6.13;;;;;;;23.62;35.35;100330.91;4804370;29;20461;-67
2023/07/03 10:50:53;;;;;;;7.43;4.60;;;;;;;23.65;36.09;100344.94;4806535;29;20422;-68
2023/07/03 10:53:36;;;;;;;8.23;4.40;;;;;;;23.47;34.79;100331.16;4808902;29;20804;-69
2023/07/03 10:56:18;;;;;;;5.93;3.83;;;;;;;23.51;35.32;100340.47;4807967;29;20527;-66
2023/07/03 10:58:58;;;;;;;12.70;4.27;;;;;;;23.16;35.93;100328.00;4805931;29;20424;-68
2023/07/03 11:01:34;;;;;;;13.17;5.07;;;;;;;23.38;36.28;100331.00;4814183;29;20442;-67
2023/07/03 11:04:19;;;;;;;9.57;5.47;;;;;;;23.43;35.68;100333.66;4808047;29;20529;-67
2023/07/03 11:07:00;;;;;;;8.33;5.17;;;;;;;23.20;35.42;100343.66;4817850;29;20460;-67
2023/07/03 11:09:40;;;;;;;8.77;4.23;;;;;;;22.85;36.00;100350.50;4807886;29;20949;-66
2023/07/03 11:12:22;;;;;;;9.43;5.03;;;;;;;22.79;37.23;100343.44;4807393;29;20439;-67
2023/07/03 11:15:07;;;;;;;9.93;4.30;;;;;;;22.10;37.04;100343.97;4810802;29;20430;-66
2023/07/03 11:17:42;;;;;;;8.33;4.70;;;;;;;22.10;38.53;100346.72;4826485;29;20461;-69
2023/07/03 11:20:36;;;;;;;10.23;4.70;;;;;;;21.78;38.66;100347.28;4818543;29;20421;-68
2023/07/03 11:23:19;;;;;;;7.70;3.60;;;;;;;21.79;39.64;100348.91;4820108;29;20419;-68
2023/07/03 11:25:55;;;;;;;11.83;5.10;;;;;;;22.03;38.81;100344.28;4818637;29;20434;-66
2023/07/03 11:28:33;;;;;;;8.67;4.87;;;;;;;22.51;38.55;100341.56;4805164;29;20440;-67
2023/07/03 11:31:05;;;;;;;17.13;5.30;;;;;;;23.13;38.57;100345.19;4809516;29;20430;-67
2023/07/03 11:33:36;;;;;;;12.30;5.13;;;;;;;22.83;38.66;100346.44;4803949;29;20429;-69
2023/07/03 11:36:28;;;;;;;10.67;5.57;;;;;;;22.95;38.51;100350.38;4812103;29;20471;-68
2023/07/03 11:39:21;;;;;;;18.00;5.60;;;;;;;22.70;39.40;100345.22;4806001;29;20445;-64